createdAt,value
2023-02-24T00:02:03.640Z,19.17
2023-02-24T00:04:40.064Z,16.73
2023-02-24T00:07:11.034Z,18.02
2023-02-24T00:09:40.465Z,17.42
2023-02-24T00:12:10.219Z,18.92
2023-02-24T00:14:38.876Z,18.00
2023-02-24T00:17:10.162Z,19.00
2023-02-24T00:19:37.332Z,18.73
2023-02-24T00:22:05.575Z,21.08
2023-02-24T00:24:32.528Z,17.83
2023-02-24T00:27:01.140Z,18.88
2023-02-24T00:29:29.178Z,18.35
2023-02-24T00:32:00.922Z,18.17
2023-02-24T00:34:29.504Z,18.73
2023-02-24T00:36:57.097Z,17.88
2023-02-24T00:39:33.168Z,16.80
2023-02-24T00:42:04.777Z,18.63
2023-02-24T00:44:39.009Z,17.67
2023-02-24T00:47:07.161Z,16.98
2023-02-24T00:49:35.998Z,17.08
2023-02-24T00:52:06.710Z,17.23
2023-02-24T00:54:36.541Z,18.65
2023-02-24T00:57:03.355Z,17.75
2023-02-24T00:59:30.091Z,18.02
2023-02-24T01:01:56.808Z,18.10
2023-02-24T01:04:23.518Z,17.05
2023-02-24T01:06:52.407Z,18.92
2023-02-24T01:09:20.810Z,16.48
2023-02-24T01:12:07.642Z,17.98
2023-02-24T01:14:35.765Z,17.60
2023-02-24T01:17:03.725Z,16.75
2023-02-24T01:19:31.900Z,18.13
2023-02-24T01:22:01.221Z,18.50
2023-02-24T01:24:33.415Z,19.15
2023-02-24T01:27:00.120Z,20.13
2023-02-24T01:29:27.563Z,19.35
2023-02-24T01:31:58.201Z,20.48
2023-02-24T01:34:26.946Z,19.77
2023-02-24T01:36:54.149Z,20.63
2023-02-24T01:39:21.169Z,19.33
2023-02-24T01:41:53.191Z,20.42
2023-02-24T01:44:22.913Z,20.58
2023-02-24T01:46:52.109Z,18.95
2023-02-24T01:49:41.436Z,19.13
2023-02-24T01:52:40.720Z,18.85
2023-02-24T01:55:23.279Z,18.45
2023-02-24T01:57:51.108Z,18.77
2023-02-24T02:00:37.241Z,19.88
2023-02-24T02:03:29.800Z,20.10
2023-02-24T02:06:03.689Z,19.67
2023-02-24T02:08:30.664Z,20.98
2023-02-24T02:11:01.693Z,20.15
2023-02-24T02:13:28.556Z,20.38
2023-02-24T02:16:03.082Z,20.38
2023-02-24T02:18:38.516Z,20.23
2023-02-24T02:21:19.072Z,20.20
2023-02-24T02:24:07.526Z,20.67
2023-02-24T02:27:03.605Z,20.80
2023-02-24T02:30:17.169Z,21.20
2023-02-24T02:33:02.570Z,20.83
2023-02-24T02:35:38.073Z,21.70
2023-02-24T02:38:15.305Z,23.05
2023-02-24T02:40:47.279Z,21.58
2023-02-24T02:43:26.047Z,21.73
2023-02-24T02:45:57.610Z,22.00
2023-02-24T02:48:54.436Z,22.27
2023-02-24T02:51:33.442Z,21.60
2023-02-24T02:54:21.920Z,22.15
2023-02-24T02:56:51.372Z,22.05
2023-02-24T02:59:22.622Z,21.20
2023-02-24T03:02:11.837Z,20.90
2023-02-24T03:04:44.045Z,22.33
2023-02-24T03:07:11.116Z,22.43
2023-02-24T03:09:40.378Z,22.45
2023-02-24T03:12:16.217Z,22.60
2023-02-24T03:14:46.208Z,22.55
2023-02-24T03:17:21.663Z,22.30
2023-02-24T03:19:54.217Z,23.33
2023-02-24T03:22:25.835Z,24.48
2023-02-24T03:24:52.994Z,23.63
2023-02-24T03:27:28.166Z,24.02
2023-02-24T03:30:06.305Z,23.27
2023-02-24T03:32:55.059Z,22.58
2023-02-24T03:35:24.789Z,22.48
2023-02-24T03:37:53.419Z,24.02
2023-02-24T03:40:21.199Z,24.05
2023-02-24T03:42:49.137Z,22.42
2023-02-24T03:45:16.666Z,22.65
2023-02-24T03:47:46.840Z,23.48
2023-02-24T03:50:15.263Z,23.02
2023-02-24T03:53:04.174Z,22.40
2023-02-24T03:55:58.925Z,22.55
2023-02-24T03:58:41.941Z,21.05
2023-02-24T04:01:42.092Z,22.90
2023-02-24T04:04:19.898Z,23.60
2023-02-24T04:07:02.878Z,22.73
2023-02-24T04:09:51.183Z,22.25
2023-02-24T04:12:32.834Z,23.63
2023-02-24T04:15:12.850Z,23.17
2023-02-24T04:17:47.143Z,23.42
2023-02-24T04:20:21.165Z,23.23
2023-02-24T04:22:54.662Z,24.08
2023-02-24T04:25:25.011Z,24.10
2023-02-24T04:27:52.846Z,23.95
2023-02-24T04:30:20.254Z,22.73
2023-02-24T04:32:47.068Z,24.17
2023-02-24T04:35:15.713Z,22.98
2023-02-24T04:37:46.486Z,22.20
2023-02-24T04:40:17.629Z,22.50
2023-02-24T04:42:49.097Z,24.85
2023-02-24T04:45:17.239Z,23.08
2023-02-24T04:47:51.274Z,25.33
2023-02-24T04:50:25.683Z,23.98
2023-02-24T04:53:01.075Z,24.58
2023-02-24T04:55:33.133Z,25.42
2023-02-24T04:58:03.245Z,24.97
2023-02-24T05:00:41.539Z,29.25
2023-02-24T05:03:11.184Z,27.35
2023-02-24T05:05:38.006Z,28.77
2023-02-24T05:08:07.917Z,28.63
2023-02-24T05:10:45.501Z,29.42
2023-02-24T05:13:21.004Z,29.20
2023-02-24T05:15:48.363Z,30.50
2023-02-24T05:18:20.441Z,29.05
2023-02-24T05:21:12.286Z,30.25
2023-02-24T05:23:44.901Z,29.33
2023-02-24T05:26:17.280Z,31.20
2023-02-24T05:28:49.468Z,30.73
2023-02-24T05:31:18.906Z,31.13
2023-02-24T05:33:48.682Z,29.40
2023-02-24T05:36:17.567Z,30.50
2023-02-24T05:38:45.745Z,31.33
2023-02-24T05:41:17.945Z,30.70
2023-02-24T05:43:48.325Z,30.38
2023-02-24T05:46:16.489Z,30.98
2023-02-24T05:48:44.120Z,31.52
2023-02-24T05:51:12.579Z,31.65
2023-02-24T05:53:42.660Z,32.63
2023-02-24T05:56:10.199Z,32.53
2023-02-24T05:58:39.393Z,32.53
2023-02-24T06:01:16.206Z,33.60
2023-02-24T06:03:48.105Z,32.05
2023-02-24T06:06:18.193Z,33.03
2023-02-24T06:08:50.795Z,32.55
2023-02-24T06:11:21.043Z,32.45
2023-02-24T06:13:48.071Z,31.38
2023-02-24T06:16:17.081Z,32.42
2023-02-24T06:18:44.409Z,32.92
2023-02-24T06:21:17.130Z,31.08
2023-02-24T06:23:45.297Z,32.15
2023-02-24T06:26:13.209Z,31.08
2023-02-24T06:28:43.322Z,31.08
2023-02-24T06:31:11.101Z,31.48
2023-02-24T06:33:41.970Z,32.25
2023-02-24T06:36:08.823Z,31.67
2023-02-24T06:38:36.539Z,31.10
2023-02-24T06:41:11.043Z,30.90
2023-02-24T06:43:43.436Z,30.80
2023-02-24T06:46:15.514Z,33.28
2023-02-24T06:48:42.492Z,30.93
2023-02-24T06:51:16.465Z,32.42
2023-02-24T06:53:43.633Z,33.67
2023-02-24T06:56:19.870Z,33.20
2023-02-24T06:58:56.941Z,32.95
2023-02-24T07:01:26.020Z,33.65
2023-02-24T07:04:02.738Z,34.05
2023-02-24T07:06:34.798Z,32.80
2023-02-24T07:09:07.230Z,32.03
2023-02-24T07:11:35.011Z,33.75
2023-02-24T07:14:02.550Z,35.25
2023-02-24T07:16:29.351Z,34.05
2023-02-24T07:18:56.975Z,34.55
2023-02-24T07:21:25.844Z,32.08
2023-02-24T07:23:58.871Z,31.80
2023-02-24T07:26:26.923Z,31.80
2023-02-24T07:28:58.193Z,33.08
2023-02-24T07:31:26.067Z,30.88
2023-02-24T07:34:02.163Z,31.00
2023-02-24T07:36:30.532Z,31.13
2023-02-24T07:38:58.779Z,30.30
2023-02-24T07:41:26.518Z,29.52
2023-02-24T07:43:54.575Z,30.58
2023-02-24T07:46:28.127Z,31.02
2023-02-24T07:48:56.416Z,29.48
2023-02-24T07:51:24.315Z,29.58
2023-02-24T07:53:56.807Z,29.48
2023-02-24T07:56:31.113Z,29.08
2023-02-24T07:58:59.665Z,29.60
2023-02-24T08:01:30.017Z,28.42
2023-02-24T08:04:01.440Z,30.83
2023-02-24T08:06:39.137Z,29.10
2023-02-24T08:09:17.335Z,30.02
2023-02-24T08:11:54.417Z,27.30
2023-02-24T08:14:25.990Z,27.95
2023-02-24T08:16:59.570Z,28.98
2023-02-24T08:19:32.871Z,28.95
2023-02-24T08:22:27.647Z,26.25
2023-02-24T08:24:56.619Z,29.13
2023-02-24T08:27:25.149Z,27.02
2023-02-24T08:30:00.261Z,28.35
2023-02-24T08:32:35.933Z,27.33
2023-02-24T08:35:05.528Z,29.77
2023-02-24T08:37:47.167Z,27.90
2023-02-24T08:40:36.167Z,27.50
2023-02-24T08:43:17.506Z,28.02
2023-02-24T08:45:51.166Z,29.08
2023-02-24T08:48:27.001Z,28.77
2023-02-24T08:51:22.463Z,28.85
2023-02-24T08:53:54.087Z,29.83
2023-02-24T08:56:26.119Z,28.10
2023-02-24T08:58:57.438Z,26.80
2023-02-24T09:01:27.089Z,26.10
2023-02-24T09:03:56.180Z,28.55
2023-02-24T09:06:35.296Z,27.63
2023-02-24T09:09:20.421Z,27.92
2023-02-24T09:11:49.984Z,28.00
2023-02-24T09:14:38.465Z,26.33
2023-02-24T09:17:11.135Z,25.98
2023-02-24T09:22:27.813Z,27.98
2023-02-24T09:25:14.383Z,26.70
2023-02-24T09:27:42.391Z,26.13
2023-02-24T09:30:33.404Z,25.35
2023-02-24T09:33:03.210Z,26.23
2023-02-24T09:35:41.942Z,26.63
2023-02-24T09:38:08.675Z,27.90
2023-02-24T09:40:40.249Z,26.13
2023-02-24T09:43:17.757Z,25.90
2023-02-24T09:46:14.968Z,25.40
2023-02-24T09:49:05.409Z,23.88
2023-02-24T09:51:42.288Z,24.25
2023-02-24T09:54:24.613Z,23.42
2023-02-24T09:57:08.349Z,22.50
2023-02-24T09:59:35.123Z,23.35
2023-02-24T10:02:28.548Z,24.38
2023-02-24T10:07:39.842Z,21.15
2023-02-24T10:10:30.682Z,21.42
2023-02-24T10:13:06.383Z,20.58
2023-02-24T10:15:59.346Z,18.02
2023-02-24T10:18:43.962Z,19.30
2023-02-24T10:21:49.925Z,18.50
2023-02-24T10:24:22.948Z,15.43
2023-02-24T10:30:20.053Z,14.80
2023-02-24T10:33:01.392Z,16.38
2023-02-24T10:35:33.857Z,16.75
2023-02-24T10:38:05.586Z,15.07
2023-02-24T10:40:46.952Z,16.83
2023-02-24T10:43:30.274Z,16.98
2023-02-24T10:46:17.159Z,17.13
2023-02-24T10:49:00.588Z,19.30
2023-02-24T10:54:25.242Z,21.83
2023-02-24T10:57:14.992Z,23.88
2023-02-24T11:00:16.102Z,23.23
2023-02-24T11:03:08.613Z,21.63
2023-02-24T11:05:56.528Z,23.42
2023-02-24T11:08:41.685Z,22.85
2023-02-24T11:11:26.028Z,22.38
2023-02-24T11:14:11.902Z,25.02
2023-02-24T11:17:12.805Z,22.10
2023-02-24T11:19:46.889Z,22.77
2023-02-24T11:22:15.523Z,23.10
2023-02-24T11:24:44.835Z,22.90
2023-02-24T11:27:11.844Z,24.05
2023-02-24T11:29:46.505Z,23.33
2023-02-24T11:32:32.480Z,22.35
2023-02-24T11:35:23.645Z,22.77
2023-02-24T11:37:51.454Z,23.65
2023-02-24T11:40:25.451Z,22.80
2023-02-24T11:43:09.372Z,23.95
2023-02-24T11:45:57.501Z,22.95
2023-02-24T11:48:27.153Z,24.45
2023-02-24T11:50:56.307Z,27.67
2023-02-24T11:53:29.412Z,22.38
2023-02-24T11:58:45.752Z,23.30
2023-02-24T12:01:33.778Z,23.02
2023-02-24T12:04:03.620Z,22.42
2023-02-24T12:06:38.521Z,22.60
2023-02-24T12:09:14.386Z,24.50
2023-02-24T12:11:54.395Z,21.73
2023-02-24T12:14:40.564Z,24.02
2023-02-24T12:17:23.419Z,22.33
2023-02-24T12:20:20.115Z,23.02
2023-02-24T12:22:52.488Z,23.75
2023-02-24T12:25:20.675Z,23.75
2023-02-24T12:28:14.590Z,20.98
2023-02-24T12:30:51.293Z,21.55
2023-02-24T12:33:37.579Z,21.23
2023-02-24T12:36:48.828Z,21.45
2023-02-24T12:39:21.410Z,20.80
2023-02-24T12:42:07.770Z,22.35
2023-02-24T12:45:02.514Z,22.65
2023-02-24T12:47:32.383Z,20.35
2023-02-24T12:50:02.088Z,21.60
2023-02-24T12:52:44.247Z,20.55
2023-02-24T12:55:34.601Z,20.45
2023-02-24T12:58:31.494Z,22.23
2023-02-24T13:01:29.098Z,20.75
2023-02-24T13:04:30.905Z,19.98
2023-02-24T13:07:19.013Z,19.70
2023-02-24T13:09:55.791Z,19.52
2023-02-24T13:12:50.419Z,20.65
2023-02-24T13:15:25.679Z,18.77
2023-02-24T13:17:54.801Z,19.35
2023-02-24T13:20:43.039Z,19.98
2023-02-24T13:23:20.335Z,19.63
2023-02-24T13:25:51.435Z,19.58
2023-02-24T13:28:31.255Z,20.00
2023-02-24T13:31:14.383Z,19.92
2023-02-24T13:33:43.296Z,19.25
2023-02-24T13:36:14.528Z,18.88
2023-02-24T13:38:42.744Z,19.13
2023-02-24T13:41:27.695Z,17.67
2023-02-24T13:44:01.394Z,18.17
2023-02-24T13:46:56.036Z,19.30
2023-02-24T13:49:27.262Z,19.08
2023-02-24T13:52:04.747Z,17.85
2023-02-24T13:54:59.101Z,17.50
2023-02-24T13:57:25.918Z,19.27
2023-02-24T13:59:58.040Z,19.85
2023-02-24T14:02:29.956Z,18.20
2023-02-24T14:04:58.599Z,18.55
2023-02-24T14:07:27.700Z,19.08
2023-02-24T14:09:59.630Z,18.60
2023-02-24T14:12:27.995Z,17.73
2023-02-24T14:14:54.687Z,18.20
2023-02-24T14:17:24.536Z,18.42
2023-02-24T14:19:51.273Z,17.48
2023-02-24T14:22:19.861Z,18.35
2023-02-24T14:24:46.911Z,16.27
2023-02-24T14:27:25.983Z,17.60
2023-02-24T14:29:52.915Z,16.38
2023-02-24T14:32:22.124Z,18.52
2023-02-24T14:34:48.963Z,16.38
2023-02-24T14:37:17.357Z,16.88
2023-02-24T14:39:56.573Z,17.20
2023-02-24T14:42:23.485Z,15.90
2023-02-24T14:44:52.304Z,16.17
2023-02-24T14:47:21.166Z,15.52
2023-02-24T14:50:02.615Z,17.67
2023-02-24T14:52:36.371Z,17.85
2023-02-24T14:55:08.070Z,15.75
2023-02-24T14:58:14.128Z,16.02
2023-02-24T15:00:48.333Z,16.10
2023-02-24T15:03:35.828Z,16.75
2023-02-24T15:06:07.861Z,17.60
2023-02-24T15:08:46.666Z,17.08
2023-02-24T15:11:16.344Z,15.45
2023-02-24T15:13:48.489Z,15.68
2023-02-24T15:16:21.682Z,15.70
2023-02-24T15:18:53.624Z,14.45
2023-02-24T15:21:30.374Z,14.85
2023-02-24T15:24:01.708Z,14.20
2023-02-24T15:26:31.499Z,14.48
2023-02-24T15:29:02.452Z,14.55
2023-02-24T15:31:29.662Z,14.05
2023-02-24T15:34:01.335Z,13.73
2023-02-24T15:36:32.785Z,13.35
2023-02-24T15:39:12.728Z,15.52
2023-02-24T15:41:44.539Z,14.23
2023-02-24T15:44:28.408Z,14.35
2023-02-24T15:46:56.341Z,13.82
2023-02-24T15:49:23.174Z,13.48
2023-02-24T15:51:51.353Z,13.43
2023-02-24T15:54:21.058Z,13.18
2023-02-24T15:56:47.923Z,14.20
2023-02-24T15:59:15.920Z,12.60
2023-02-24T16:01:42.574Z,13.85
2023-02-24T16:04:12.275Z,14.38
2023-02-24T16:06:41.834Z,14.65
2023-02-24T16:09:14.205Z,14.07
2023-02-24T16:11:42.158Z,14.38
2023-02-24T16:14:10.175Z,14.82
2023-02-24T16:16:37.879Z,14.90
2023-02-24T16:19:04.781Z,14.90
2023-02-24T16:21:34.705Z,15.23
2023-02-24T16:24:01.463Z,16.30
2023-02-24T16:26:28.156Z,15.27
2023-02-24T16:28:58.163Z,15.18
2023-02-24T16:31:26.236Z,17.35
2023-02-24T16:33:55.666Z,16.40
2023-02-24T16:36:24.320Z,15.07
2023-02-24T16:38:52.473Z,15.93
2023-02-24T16:41:19.309Z,16.63
2023-02-24T16:43:46.032Z,15.98
2023-02-24T16:46:25.219Z,16.35
2023-02-24T16:48:53.481Z,14.50
2023-02-24T16:51:31.234Z,14.20
2023-02-24T16:53:58.046Z,13.93
2023-02-24T16:56:24.858Z,13.23
2023-02-24T16:58:51.630Z,14.73
2023-02-24T17:01:21.012Z,14.10
2023-02-24T17:03:53.937Z,13.00
2023-02-24T17:06:23.866Z,14.80
2023-02-24T17:08:51.168Z,15.13
2023-02-24T17:11:19.939Z,15.18
2023-02-24T17:13:49.655Z,19.25
2023-02-24T17:16:17.735Z,23.75
2023-02-24T17:18:44.581Z,15.73
2023-02-24T17:21:15.393Z,14.43
2023-02-24T17:23:44.666Z,12.95
2023-02-24T17:26:15.456Z,13.32
2023-02-24T17:28:42.505Z,13.35
2023-02-24T17:31:09.336Z,13.13
2023-02-24T17:33:36.091Z,13.70
2023-02-24T17:36:02.732Z,13.10
2023-02-24T17:38:29.871Z,12.82
2023-02-24T17:40:58.037Z,12.50
2023-02-24T17:43:27.281Z,12.52
2023-02-24T17:45:53.984Z,11.85
2023-02-24T17:48:21.481Z,11.70
2023-02-24T17:50:48.566Z,12.05
2023-02-24T17:53:15.701Z,12.13
2023-02-24T17:55:55.878Z,10.93
2023-02-24T17:58:27.942Z,12.50
2023-02-24T18:00:54.806Z,11.70
2023-02-24T18:03:21.550Z,11.80
2023-02-24T18:05:48.494Z,10.93
2023-02-24T18:08:15.342Z,11.00
2023-02-24T18:10:42.222Z,10.40
2023-02-24T18:13:10.052Z,10.90
2023-02-24T18:15:38.858Z,9.68
2023-02-24T18:18:05.623Z,8.93
2023-02-24T18:20:32.369Z,10.25
2023-02-24T18:22:59.041Z,9.38
2023-02-24T18:25:25.657Z,9.13
2023-02-24T18:27:52.316Z,9.18
2023-02-24T18:30:19.222Z,9.73
2023-02-24T18:32:47.410Z,10.02
2023-02-24T18:35:15.933Z,9.93
2023-02-24T18:37:43.676Z,10.65
2023-02-24T18:40:11.226Z,9.23
2023-02-24T18:42:38.767Z,9.40
2023-02-24T18:45:06.630Z,9.27
2023-02-24T18:47:33.346Z,9.15
2023-02-24T18:49:59.999Z,10.25
2023-02-24T18:52:26.838Z,9.77
2023-02-24T18:54:55.707Z,10.43
2023-02-24T18:57:22.371Z,9.52
2023-02-24T18:59:50.358Z,10.20
2023-02-24T19:02:17.312Z,10.75
2023-02-24T19:04:46.006Z,10.25
2023-02-24T19:07:13.370Z,10.65
2023-02-24T19:09:42.850Z,11.30
2023-02-24T19:12:09.637Z,11.00
2023-02-24T19:14:37.329Z,10.55
2023-02-24T19:17:04.024Z,11.20
2023-02-24T19:19:30.731Z,10.95
2023-02-24T19:21:57.384Z,11.77
2023-02-24T19:24:24.170Z,12.27
2023-02-24T19:26:52.721Z,11.43
2023-02-24T19:29:20.539Z,12.55
2023-02-24T19:31:52.655Z,12.32
2023-02-24T19:34:19.650Z,13.80
2023-02-24T19:36:46.281Z,12.85
2023-02-24T19:39:14.623Z,13.40
2023-02-24T19:41:41.456Z,14.63
2023-02-24T19:44:08.244Z,13.68
2023-02-24T19:46:36.323Z,12.60
2023-02-24T19:49:03.645Z,15.95
2023-02-24T19:51:31.219Z,14.43
2023-02-24T19:54:00.106Z,13.73
2023-02-24T19:56:29.251Z,13.00
2023-02-24T19:58:57.046Z,15.13
2023-02-24T20:01:25.283Z,13.75
2023-02-24T20:03:54.544Z,14.55
2023-02-24T20:06:24.997Z,13.27
2023-02-24T20:08:52.678Z,14.27
2023-02-24T20:11:20.553Z,13.63
2023-02-24T20:13:47.471Z,14.43
2023-02-24T20:16:19.118Z,15.63
2023-02-24T20:18:46.233Z,13.77
2023-02-24T20:21:13.397Z,13.82
2023-02-24T20:23:40.579Z,15.32
2023-02-24T20:26:07.726Z,14.50
2023-02-24T20:28:34.405Z,15.63
2023-02-24T20:31:09.867Z,15.52
2023-02-24T20:33:41.152Z,15.57
2023-02-24T20:36:09.639Z,15.43
2023-02-24T20:38:38.149Z,14.27
2023-02-24T20:41:05.389Z,14.50
2023-02-24T20:43:32.532Z,14.32
2023-02-24T20:45:59.804Z,14.50
2023-02-24T20:48:27.008Z,14.80
2023-02-24T20:50:53.651Z,15.10
2023-02-24T20:53:20.299Z,15.63
2023-02-24T20:55:46.924Z,14.98
2023-02-24T20:58:13.595Z,15.02
2023-02-24T21:00:40.630Z,15.07
2023-02-24T21:03:12.043Z,15.15
2023-02-24T21:05:39.282Z,11.57
2023-02-24T21:08:06.227Z,7.90
2023-02-24T21:10:33.012Z,5.60
2023-02-24T21:13:00.927Z,5.90
2023-02-24T21:15:28.119Z,6.00
2023-02-24T21:17:54.886Z,4.40
2023-02-24T21:20:21.680Z,2.25
2023-02-24T21:22:48.693Z,1.77
2023-02-24T21:25:15.363Z,1.90
2023-02-24T21:27:42.066Z,1.98
2023-02-24T21:30:09.446Z,2.10
2023-02-24T21:32:36.535Z,1.95
2023-02-24T21:35:04.953Z,2.67
2023-02-24T21:37:32.887Z,2.05
2023-02-24T21:40:01.063Z,2.08
2023-02-24T21:42:27.854Z,3.05
2023-02-24T21:45:02.639Z,2.28
2023-02-24T21:47:32.462Z,2.58
2023-02-24T21:49:59.188Z,2.97
2023-02-24T21:52:25.947Z,3.58
2023-02-24T21:54:53.502Z,3.67
2023-02-24T21:57:21.283Z,4.10
2023-02-24T21:59:48.023Z,3.28
2023-02-24T22:02:16.928Z,3.72
2023-02-24T22:04:46.955Z,4.07
2023-02-24T22:07:13.736Z,4.00
2023-02-24T22:09:40.648Z,3.90
2023-02-24T22:12:07.366Z,3.78
2023-02-24T22:14:34.243Z,4.18
2023-02-24T22:17:01.204Z,3.80
2023-02-24T22:19:27.933Z,3.90
2023-02-24T22:21:57.965Z,3.95
2023-02-24T22:24:24.721Z,4.75
2023-02-24T22:26:51.452Z,4.38
2023-02-24T22:29:18.152Z,4.63
2023-02-24T22:31:49.567Z,4.68
2023-02-24T22:34:16.617Z,4.45
2023-02-24T22:36:43.593Z,4.38
2023-02-24T22:39:10.538Z,4.75
2023-02-24T22:41:38.436Z,5.78
2023-02-24T22:44:06.140Z,5.63
2023-02-24T22:46:34.929Z,5.15
2023-02-24T22:49:03.012Z,5.65
2023-02-24T22:51:30.034Z,5.18
2023-02-24T22:53:56.832Z,6.93
2023-02-24T22:56:26.127Z,8.18
2023-02-24T22:58:53.091Z,8.65
2023-02-24T23:01:28.479Z,6.47
2023-02-24T23:03:55.478Z,6.60
2023-02-24T23:06:23.932Z,6.38
2023-02-24T23:08:51.636Z,6.03
2023-02-24T23:11:24.975Z,5.93
2023-02-24T23:13:52.078Z,6.43
2023-02-24T23:16:27.536Z,5.85
2023-02-24T23:18:56.340Z,6.65
2023-02-24T23:21:25.385Z,6.05
2023-02-24T23:23:57.024Z,5.88
2023-02-24T23:26:51.921Z,6.47
2023-02-24T23:29:18.792Z,6.30
2023-02-24T23:31:46.142Z,6.50
2023-02-24T23:34:13.311Z,6.57
2023-02-24T23:36:43.694Z,6.20
2023-02-24T23:39:12.190Z,6.47
2023-02-24T23:41:39.203Z,6.35
2023-02-24T23:44:06.288Z,7.43
2023-02-24T23:46:33.954Z,6.00
2023-02-24T23:49:00.848Z,6.93
2023-02-24T23:51:35.817Z,7.00
2023-02-24T23:54:08.920Z,7.35
2023-02-24T23:56:36.597Z,7.03
2023-02-24T23:59:03.547Z,6.57
